TAF KBJI
KBJI 090530Z 0906/1006 16015KT P6SM OVC080 WS020/18045KT FM091100 17011G19KT P6SM OVC080 FM091700 23008KT P6SM OVC030 FM092000 28010G19KT P6SM BKN024 FM100000 27007KT P6SM BKN035=
METAR KBJI
WC KBJI
WS KBJI
WV KBJI